Airfield :
LOGIN :

Register | Disclaimer

   EN    FR    IT 

 










Legend :    VFR   Marginal VFR   IFR   Intensive IFR   Very Intensive IFR
Visi :
Ceiling :
>= 8 km
>= 3000ft
5 to 8 km
1000 to 3000 ft
1500m to 5 km
500 to 1000 ft
800 to 1500m
200 to 500 ft
< 800m
< 200 ft
Symbols :   Thunderstorms  Fog  Heavy snow  Heavy precipitations  Wind > 20 kt
SIGMETs :     Misc.  Thunderstorms  Icing  Turbulence  Mountain Waves  Volcanic Ashes







- Airport Elevation : 290 ft
- IATA code : LAI
- Download approach charts


LFRO - Lannion

CURRENT METAR :
  • 281230Z AUTO 21013G24KT 180V240 9999 BKN029 BKN037 OVC045 19/13 Q1013 TEMPO SHRA BKN011

EXPIRED METARs :
  • 281200Z AUTO 21013KT 180V240 9999 BKN030 OVC040 19/14 Q1013 TEMPO SHRA BKN011 BECMG 23015G30KT
  • 281130Z AUTO 22013KT 9999 FEW030 SCT037 OVC044 19/14 Q1013 TEMPO SHRA BKN011 BECMG 23015G30KT
  • 281100Z AUTO 21013G24KT 9999 SCT031 BKN044 OVC056 19/13 Q1013 NOSIG
  • 281030Z AUTO 21013KT 9999 FEW030 SCT036 BKN042 19/13 Q1014 BECMG 23015G25KT
  • 281000Z AUTO 22014KT 190V250 9999 FEW026 SCT031 BKN043 19/13 Q1013 BECMG 23015G25KT

TAF TAF LFRO
Valid from the 28 at 06:00 until the 29 at 06:00 UTC


280500Z 2806/2906 22010KT 9999 BKN015
TEMPO 2806/2810 BKN013
BECMG 2809/2812 23015G25KT
TEMPO 2812/2817 BKN020
BECMG 2819/2822 3000 RADZ OVC006
No reported NOTAMs for that airfield.



MET'MAP, your aeronautical weather chart ! - Copyright ORBIFLY December 2007 - Disclaimer

ORBIFLY MET'MAP TEAM :

Programming & Development : Alexandra Zaïnal
Concept & Development : Baudouin d'Aumeries
Co-Development & Prog : Marc-Olivier Méhu
Technical & hardware support : Manuel Goepfert

Contact : metmap@orbifly.com




SOURCES & CREDITS :

   NOAA